Time;durP1;ratioP1;P1;durP2;ratioP2;P2;SDS_P1;SDS_P2;PMS_P1;PMS_P2;Temp;Humidity;BMP_temperature;BMP_pressure;BME280_temperature;BME280_humidity;BME280_pressure;Samples;Min_cycle;Max_cycle;Signal;HPM_P1;HPM_P2
2024/02/16 00:00:24;;;;;;;15.10;4.03;;;13.30;99.90;;;12.85;100.00;100441.53;4185183;28;20029;-69
2024/02/16 00:02:25;;;;;;;15.38;3.80;;;13.30;99.90;;;12.84;100.00;100439.91;4183596;28;20029;-69
2024/02/16 00:04:25;;;;;;;17.90;4.68;;;13.30;99.90;;;12.84;100.00;100432.81;4185110;28;20028;-69
2024/02/16 00:06:26;;;;;;;9.25;3.00;;;13.30;99.90;;;12.88;100.00;100435.91;4183872;28;20052;-69
2024/02/16 00:08:27;;;;;;;10.15;3.17;;;13.30;99.90;;;12.87;100.00;100432.44;4184694;28;20021;-69
2024/02/16 00:10:28;;;;;;;22.20;6.60;;;13.30;99.90;;;12.91;100.00;100446.13;4167543;28;20067;-69
2024/02/16 00:12:30;;;;;;;18.88;4.82;;;13.30;99.90;;;12.88;100.00;100443.84;4184842;28;20028;-69
2024/02/16 00:14:31;;;;;;;20.05;5.80;;;13.30;99.90;;;12.91;100.00;100446.13;4183816;28;20018;-69
2024/02/16 00:16:32;;;;;;;19.05;5.07;;;13.40;99.90;;;12.92;100.00;100443.31;4184791;28;20025;-69
2024/02/16 00:18:33;;;;;;;20.55;5.38;;;13.40;99.90;;;12.91;100.00;100451.41;4183871;28;20151;-69
2024/02/16 00:20:34;;;;;;;27.55;5.82;;;13.30;99.90;;;12.89;100.00;100451.63;4183741;28;20447;-69
2024/02/16 00:22:35;;;;;;;34.33;6.60;;;13.30;99.90;;;12.91;100.00;100456.72;4184450;28;20033;-69
2024/02/16 00:24:36;;;;;;;16.10;4.47;;;13.30;99.90;;;12.90;100.00;100455.91;4166960;28;20405;-69
2024/02/16 00:26:40;;;;;;;24.65;5.18;;;13.40;99.90;;;12.91;100.00;100456.72;4184754;28;20017;-69
2024/02/16 00:28:41;;;;;;;18.65;5.38;;;13.40;99.90;;;12.90;100.00;100458.56;4184912;28;20064;-69
2024/02/16 00:30:42;;;;;;;19.48;4.85;;;13.40;99.90;;;12.88;100.00;100459.72;4184737;28;20029;-69
2024/02/16 00:32:45;;;;;;;23.65;5.65;;;13.30;99.90;;;12.91;100.00;100468.13;4183573;28;20032;-69
2024/02/16 00:34:46;;;;;;;22.65;4.72;;;13.30;99.90;;;12.90;100.00;100487.69;4184959;28;20025;-69
2024/02/16 00:36:47;;;;;;;14.43;3.95;;;13.30;99.90;;;12.90;100.00;100498.28;4183247;28;20411;-69
2024/02/16 00:38:48;;;;;;;19.50;4.88;;;13.30;99.90;;;12.91;100.00;100499.06;4184290;28;20064;-69
2024/02/16 00:40:49;;;;;;;17.58;5.78;;;13.30;99.90;;;12.90;100.00;100494.81;4184582;28;20400;-69
2024/02/16 00:42:50;;;;;;;24.73;9.38;;;13.30;99.90;;;12.91;100.00;100505.19;4183503;28;20392;-69
2024/02/16 00:44:50;;;;;;;22.27;7.40;;;13.30;99.90;;;12.87;100.00;100511.88;4183306;28;20021;-69
2024/02/16 00:46:51;;;;;;;23.67;7.18;;;13.30;99.90;;;12.80;100.00;100502.16;4185186;28;20013;-69
2024/02/16 00:48:53;;;;;;;15.75;4.60;;;13.30;99.90;;;12.87;100.00;100514.50;4172794;28;20041;-69
2024/02/16 00:50:54;;;;;;;24.98;5.25;;;13.30;99.90;;;12.90;100.00;100524.75;4171397;28;20022;-69
2024/02/16 00:52:55;;;;;;;25.65;6.72;;;13.30;99.90;;;12.83;100.00;100518.50;4178501;28;20037;-69
2024/02/16 00:54:56;;;;;;;17.42;6.60;;;13.30;99.90;;;12.88;100.00;100524.09;4187652;28;20029;-69
2024/02/16 00:57:02;;;;;;;22.25;6.43;;;13.30;99.90;;;12.87;100.00;100525.09;4186252;28;20037;-69
2024/02/16 00:59:02;;;;;;;19.00;4.55;;;13.30;99.90;;;12.85;100.00;100519.13;4186287;28;20056;-69
2024/02/16 01:01:04;;;;;;;25.30;5.25;;;13.30;99.90;;;12.85;100.00;100519.13;4187572;28;20021;-69
2024/02/16 01:03:05;;;;;;;24.42;5.38;;;13.30;99.90;;;12.82;100.00;100527.44;4186256;28;20080;-69
2024/02/16 01:05:09;;;;;;;27.17;7.10;;;13.30;99.90;;;12.83;100.00;100534.38;4187322;28;20408;-69
2024/02/16 01:07:12;;;;;;;26.45;5.82;;;13.30;99.90;;;12.82;100.00;100551.25;4187237;28;20082;-69
2024/02/16 01:09:12;;;;;;;23.85;6.18;;;13.20;99.90;;;12.81;100.00;100549.63;4188129;28;20357;-69
2024/02/16 01:11:13;;;;;;;22.45;6.03;;;13.30;99.90;;;12.79;100.00;100554.25;4185972;28;20082;-70
2024/02/16 01:13:14;;;;;;;26.85;7.20;;;13.30;99.90;;;12.81;100.00;100546.16;4186041;28;20029;-70
2024/02/16 01:15:15;;;;;;;23.20;6.55;;;13.20;99.90;;;12.80;100.00;100560.38;4187369;28;20036;-70
2024/02/16 01:17:16;;;;;;;29.30;7.68;;;13.20;99.90;;;12.76;100.00;100560.72;4187210;28;20028;-70
2024/02/16 01:19:17;;;;;;;25.45;5.43;;;13.20;99.90;;;12.76;100.00;100559.91;4187365;28;20028;-69
2024/02/16 01:21:18;;;;;;;28.52;7.45;;;13.20;99.90;;;12.73;100.00;100561.06;4187304;28;20029;-70
2024/02/16 01:23:20;;;;;;;25.80;7.40;;;13.20;99.90;;;12.75;100.00;100559.06;4186956;28;20396;-70
2024/02/16 01:25:21;;;;;;;29.23;7.25;;;13.20;99.90;;;12.72;100.00;100543.53;4186027;28;20064;-69
2024/02/16 01:27:21;;;;;;;20.17;5.80;;;13.20;99.90;;;12.73;100.00;100544.38;4186975;28;20028;-70
2024/02/16 01:29:22;;;;;;;18.70;4.95;;;13.20;99.90;;;12.74;100.00;100543.38;4186957;28;20056;-70
2024/02/16 01:31:23;;;;;;;17.92;4.88;;;13.20;99.90;;;12.75;100.00;100555.63;4185860;28;20029;-70
2024/02/16 01:33:24;;;;;;;22.15;6.20;;;13.20;99.90;;;12.72;100.00;100571.84;4187167;28;20032;-70
2024/02/16 01:35:25;;;;;;;24.30;5.88;;;13.20;99.90;;;12.73;100.00;100568.19;4169192;28;20029;-70
2024/02/16 01:37:26;;;;;;;29.48;6.57;;;13.20;99.90;;;12.73;100.00;100581.41;4186523;28;20033;-70
2024/02/16 01:39:27;;;;;;;24.90;6.03;;;13.20;99.90;;;12.69;100.00;100572.19;4186677;28;20021;-70
2024/02/16 01:41:27;;;;;;;22.25;5.78;;;13.20;99.90;;;12.72;100.00;100590.38;4185889;28;20033;-70
2024/02/16 01:43:28;;;;;;;22.00;5.75;;;13.20;99.90;;;12.69;100.00;100601.31;4185645;28;20029;-69
2024/02/16 01:45:29;;;;;;;25.33;6.30;;;13.20;99.90;;;12.66;100.00;100606.94;4186769;28;20025;-69
2024/02/16 01:47:30;;;;;;;23.23;6.55;;;13.20;99.90;;;12.69;100.00;100619.84;4186772;28;20033;-69
2024/02/16 01:49:31;;;;;;;20.80;6.28;;;13.10;99.90;;;12.64;100.00;100620.34;4168870;28;20481;-69
2024/02/16 01:51:33;;;;;;;37.08;6.55;;;13.10;99.90;;;12.67;100.00;100613.88;4186743;28;20074;-69
2024/02/16 01:53:36;;;;;;;28.90;7.13;;;13.10;99.90;;;12.62;100.00;100611.75;4186344;28;20025;-69
2024/02/16 01:55:38;;;;;;;18.73;6.10;;;13.10;99.90;;;12.63;100.00;100616.03;4185586;28;20037;-69
2024/02/16 01:57:40;;;;;;;22.83;5.78;;;13.10;99.90;;;12.64;100.00;100632.75;4185397;28;20180;-69
2024/02/16 01:59:41;;;;;;;23.92;7.68;;;13.10;99.90;;;12.63;100.00;100637.19;4185666;28;20056;-69
2024/02/16 02:01:42;;;;;;;25.05;8.20;;;13.10;99.90;;;12.64;100.00;100641.50;4185327;28;20040;-69
2024/02/16 02:03:42;;;;;;;20.92;6.70;;;13.10;99.90;;;12.63;100.00;100641.69;4186541;28;20114;-69
2024/02/16 02:05:45;;;;;;;34.20;7.97;;;13.10;99.90;;;12.59;100.00;100641.22;4185335;28;20091;-69
2024/02/16 02:07:46;;;;;;;21.58;6.30;;;13.10;99.90;;;12.59;100.00;100645.66;4185272;28;20036;-69
2024/02/16 02:09:47;;;;;;;20.52;6.47;;;13.10;99.90;;;12.59;100.00;100640.38;4185446;28;20021;-69
2024/02/16 02:11:48;;;;;;;26.77;7.35;;;13.10;99.90;;;12.55;100.00;100644.34;4186341;28;20025;-69
2024/02/16 02:13:49;;;;;;;28.20;6.78;;;13.10;99.90;;;12.55;100.00;100657.59;4186510;28;20024;-69
2024/02/16 02:15:50;;;;;;;27.15;7.85;;;13.00;99.90;;;12.55;100.00;100657.59;4186368;28;20083;-69
2024/02/16 02:17:51;;;;;;;23.70;8.30;;;13.00;99.90;;;12.54;100.00;100664.72;4186336;28;20087;-69
2024/02/16 02:19:52;;;;;;;26.88;7.32;;;13.00;99.90;;;12.54;100.00;100670.00;4184945;28;20029;-69
2024/02/16 02:21:53;;;;;;;32.13;7.93;;;13.00;99.90;;;12.57;100.00;100682.88;4186117;28;20029;-69
2024/02/16 02:23:54;;;;;;;29.63;6.80;;;13.00;99.90;;;12.51;100.00;100688.03;4186280;28;20021;-69
2024/02/16 02:25:55;;;;;;;25.60;8.18;;;13.00;99.90;;;12.49;100.00;100695.31;4186128;28;20033;-69
2024/02/16 02:27:56;;;;;;;24.23;6.97;;;13.00;99.90;;;12.43;100.00;100696.81;4186041;28;20017;-69
2024/02/16 02:29:58;;;;;;;23.20;8.32;;;13.00;99.90;;;12.46;100.00;100699.13;4186314;28;20028;-69
2024/02/16 02:31:59;;;;;;;33.22;7.38;;;13.00;99.90;;;12.44;100.00;100695.00;4186021;28;20035;-70
2024/02/16 02:34:00;;;;;;;21.80;7.65;;;13.00;99.90;;;12.41;100.00;100695.31;4186213;28;20396;-69
2024/02/16 02:36:03;;;;;;;22.25;6.38;;;13.00;99.90;;;12.50;100.00;100702.25;4184639;28;20017;-69
2024/02/16 02:38:05;;;;;;;21.00;6.05;;;13.00;99.90;;;12.42;100.00;100703.13;4184781;28;20467;-69
2024/02/16 02:40:08;;;;;;;13.65;5.18;;;13.00;99.90;;;12.41;100.00;100719.97;4184071;28;20029;-69
2024/02/16 02:42:10;;;;;;;23.98;6.53;;;12.90;99.90;;;12.41;100.00;100716.50;4185623;28;20029;-69
2024/02/16 02:44:11;;;;;;;13.95;5.32;;;12.90;99.90;;;12.33;100.00;100716.50;4184688;28;20055;-69
2024/02/16 02:46:16;;;;;;;13.88;4.82;;;12.90;99.90;;;12.41;100.00;100730.56;4184732;28;20017;-70
2024/02/16 02:48:18;;;;;;;7.35;4.13;;;12.90;99.90;;;12.38;100.00;100735.34;4184451;28;20087;-70
2024/02/16 02:50:18;;;;;;;11.80;4.18;;;12.90;99.90;;;12.33;100.00;100738.50;4185814;28;20017;-69
2024/02/16 02:52:21;;;;;;;10.48;4.50;;;12.90;99.90;;;12.32;100.00;100744.78;4185615;28;20075;-69
2024/02/16 02:54:22;;;;;;;9.27;3.47;;;12.90;99.90;;;12.33;100.00;100750.91;4184684;28;20028;-69
2024/02/16 02:56:23;;;;;;;10.65;2.92;;;12.80;99.90;;;12.26;100.00;100752.56;4184686;28;20032;-69
2024/02/16 02:58:23;;;;;;;7.57;2.63;;;12.80;99.90;;;12.22;100.00;100759.97;4185675;28;20033;-69
2024/02/16 03:00:25;;;;;;;6.30;2.55;;;12.80;99.90;;;12.15;100.00;100772.25;4185675;28;20098;-69
2024/02/16 03:02:26;;;;;;;6.55;2.38;;;12.70;99.90;;;12.06;100.00;100774.06;4185595;28;20025;-69
2024/02/16 03:04:27;;;;;;;6.05;2.30;;;12.60;99.90;;;12.04;100.00;100767.25;4185809;28;20087;-69
2024/02/16 03:06:28;;;;;;;5.70;2.60;;;12.60;99.90;;;11.97;100.00;100769.75;4184370;28;20021;-69
2024/02/16 03:08:29;;;;;;;4.25;1.80;;;12.50;99.90;;;11.92;100.00;100766.75;4183685;28;20072;-69
2024/02/16 03:10:34;;;;;;;9.02;3.35;;;12.50;99.90;;;11.88;100.00;100777.84;4185570;28;20507;-70
2024/02/16 03:12:35;;;;;;;4.03;1.60;;;12.50;99.90;;;11.84;100.00;100785.25;4185513;28;20033;-70
2024/02/16 03:14:37;;;;;;;5.53;1.58;;;12.40;99.90;;;11.80;100.00;100789.19;4185431;28;20035;-69
2024/02/16 03:16:38;;;;;;;3.63;1.45;;;12.40;99.90;;;11.75;100.00;100795.97;4184205;28;20075;-69
2024/02/16 03:18:39;;;;;;;4.30;1.45;;;12.40;99.90;;;11.70;100.00;100793.81;4184464;28;20029;-69
2024/02/16 03:20:40;;;;;;;4.47;1.45;;;12.30;99.90;;;11.66;100.00;100797.75;4185379;28;20036;-69
2024/02/16 03:22:41;;;;;;;3.22;1.58;;;12.20;99.90;;;11.62;100.00;100794.59;4183815;28;20029;-69
2024/02/16 03:24:42;;;;;;;4.55;1.65;;;12.20;99.90;;;11.60;100.00;100791.28;4185365;28;20037;-69
2024/02/16 03:26:42;;;;;;;3.33;1.40;;;12.10;99.90;;;11.55;100.00;100796.25;4185275;28;20025;-69
2024/02/16 03:28:47;;;;;;;2.88;1.58;;;12.10;99.90;;;11.57;100.00;100804.00;4185435;28;20021;-69
2024/02/16 03:30:47;;;;;;;4.38;1.13;;;12.00;99.90;;;11.49;100.00;100799.53;4185265;28;20025;-69
2024/02/16 03:32:52;;;;;;;4.07;1.42;;;12.00;99.90;;;11.48;100.00;100800.50;4184055;28;20092;-69
2024/02/16 03:34:52;;;;;;;5.95;1.98;;;12.00;99.90;;;11.47;100.00;100814.69;4185480;28;20044;-69
2024/02/16 03:36:54;;;;;;;2.53;1.48;;;12.00;99.90;;;11.44;100.00;100808.91;4183773;28;20440;-69
2024/02/16 03:38:54;;;;;;;3.97;1.30;;;11.90;99.90;;;11.41;100.00;100817.16;4185415;28;20021;-69
2024/02/16 03:40:56;;;;;;;4.13;1.60;;;11.90;99.90;;;11.43;100.00;100837.13;4185218;28;20033;-69
2024/02/16 03:42:57;;;;;;;3.85;1.25;;;11.90;99.90;;;11.41;100.00;100835.66;4184767;28;20115;-69
2024/02/16 03:44:58;;;;;;;3.75;1.60;;;11.90;99.90;;;11.42;100.00;100842.56;4183797;28;20028;-69
2024/02/16 03:46:58;;;;;;;4.47;1.67;;;11.90;99.90;;;11.40;100.00;100845.38;4185251;28;20023;-69
2024/02/16 03:48:59;;;;;;;3.28;2.00;;;11.90;99.90;;;11.36;100.00;100843.19;4183749;28;20138;-69
2024/02/16 03:51:03;;;;;;;2.78;1.73;;;11.90;99.90;;;11.38;100.00;100859.75;4184149;28;20052;-69
2024/02/16 03:53:04;;;;;;;5.50;2.10;;;11.90;99.90;;;11.38;100.00;100865.03;4200208;28;20037;-69
2024/02/16 03:55:05;;;;;;;4.40;1.40;;;11.90;99.90;;;11.39;100.00;100871.94;4185044;28;20060;-69
2024/02/16 03:57:09;;;;;;;2.97;1.65;;;11.90;99.90;;;11.35;100.00;100878.53;4183573;28;20060;-69
2024/02/16 03:59:10;;;;;;;4.57;1.35;;;11.90;99.90;;;11.39;100.00;100896.53;4185248;28;20406;-69
2024/02/16 04:01:11;;;;;;;3.00;1.20;;;11.90;99.90;;;11.38;100.00;100899.34;4185104;28;20397;-69
2024/02/16 04:03:11;;;;;;;3.22;1.38;;;11.90;99.90;;;11.42;100.00;100908.59;4184940;28;20033;-69
2024/02/16 04:05:12;;;;;;;2.50;1.10;;;11.90;99.90;;;11.35;100.00;100913.69;4184858;28;20040;-69
2024/02/16 04:07:14;;;;;;;2.33;0.80;;;11.90;99.90;;;11.41;100.00;100920.97;4184893;28;20602;-69
2024/02/16 04:09:15;;;;;;;3.25;0.90;;;11.90;99.90;;;11.36;100.00;100928.53;4183723;28;20025;-69
2024/02/16 04:11:16;;;;;;;3.60;0.65;;;11.90;99.90;;;11.38;100.00;100938.97;4167404;28;20021;-69
2024/02/16 04:13:17;;;;;;;2.15;0.90;;;11.90;99.90;;;11.34;100.00;100941.09;4184720;28;20163;-70
2024/02/16 04:15:18;;;;;;;1.50;0.70;;;11.90;99.90;;;11.35;100.00;100934.81;4185187;28;20033;-70
2024/02/16 04:17:19;;;;;;;1.98;0.75;;;11.90;99.90;;;11.38;100.00;100944.25;4183662;28;20037;-69
2024/02/16 04:19:20;;;;;;;4.85;0.70;;;11.90;99.90;;;11.38;100.00;100941.63;4183688;28;20021;-69
2024/02/16 04:21:21;;;;;;;3.47;0.90;;;11.90;99.90;;;11.31;100.00;100943.22;4186767;28;20029;-69
2024/02/16 04:23:22;;;;;;;6.00;0.73;;;11.80;99.90;;;11.37;100.00;100950.50;4164885;28;20037;-70
2024/02/16 04:25:23;;;;;;;2.05;0.50;;;11.80;99.90;;;11.31;100.00;100957.25;4171804;28;20030;-70
2024/02/16 04:27:24;;;;;;;3.10;0.82;;;11.80;99.90;;;11.35;100.00;100960.41;4183532;28;20036;-70
2024/02/16 04:29:25;;;;;;;2.33;0.63;;;11.80;99.90;;;11.30;100.00;100963.50;4187997;28;20021;-70
2024/02/16 04:31:26;;;;;;;1.05;0.45;;;11.80;99.90;;;11.33;100.00;100965.00;4187984;28;20017;-70
2024/02/16 04:33:27;;;;;;;1.25;0.40;;;11.80;99.90;;;11.31;100.00;100975.72;4186647;28;20029;-69
2024/02/16 04:35:27;;;;;;;2.38;0.43;;;11.80;99.90;;;11.30;100.00;100981.16;4186642;28;20068;-69
2024/02/16 04:37:28;;;;;;;2.25;0.40;;;11.80;99.90;;;11.35;100.00;100984.19;4186446;28;20029;-69
2024/02/16 04:39:29;;;;;;;1.20;0.50;;;11.80;99.90;;;11.35;100.00;100989.47;4188077;28;20021;-69
2024/02/16 04:41:30;;;;;;;1.23;0.47;;;11.80;99.90;;;11.31;100.00;100996.03;4187697;28;20025;-70
2024/02/16 04:43:31;;;;;;;2.05;0.77;;;11.80;99.90;;;11.33;100.00;100996.69;4187280;28;20021;-69
2024/02/16 04:45:32;;;;;;;2.78;0.70;;;11.80;99.90;;;11.36;100.00;101001.66;4179118;28;20032;-69
2024/02/16 04:47:33;;;;;;;2.38;0.40;;;11.80;99.90;;;11.35;100.00;101002.66;4186550;28;20459;-69
2024/02/16 04:49:33;;;;;;;3.22;0.50;;;11.80;99.90;;;11.34;100.00;101003.63;4186518;28;20091;-69
2024/02/16 04:51:34;;;;;;;2.20;0.75;;;11.80;99.90;;;11.31;100.00;101020.63;4186581;28;20045;-69
2024/02/16 04:53:35;;;;;;;1.58;0.80;;;11.80;99.90;;;11.35;100.00;101021.16;4186228;28;20028;-69
2024/02/16 04:55:36;;;;;;;3.40;0.70;;;11.90;99.90;;;11.32;100.00;101024.09;4187692;28;20037;-69
2024/02/16 04:57:37;;;;;;;3.55;0.55;;;11.80;99.90;;;11.36;100.00;101025.44;4187510;28;20036;-69
2024/02/16 04:59:38;;;;;;;5.55;0.70;;;11.90;99.90;;;11.37;100.00;101038.50;4186594;28;20036;-69
2024/02/16 05:01:38;;;;;;;3.92;1.02;;;11.90;99.90;;;11.37;100.00;101050.88;4187305;28;20033;-69
2024/02/16 05:03:43;;;;;;;2.08;0.63;;;11.90;99.90;;;11.28;100.00;101044.72;4169968;28;20033;-69
2024/02/16 05:05:44;;;;;;;3.00;0.85;;;11.90;99.90;;;11.41;100.00;101063.59;4186300;28;20021;-70
2024/02/16 05:07:49;;;;;;;2.17;0.70;;;11.90;99.90;;;11.38;100.00;101066.56;4187154;28;20036;-70
2024/02/16 05:09:50;;;;;;;2.15;1.15;;;11.90;99.90;;;11.41;100.00;101062.81;4186267;28;20024;-70
2024/02/16 05:11:51;;;;;;;3.13;0.73;;;11.90;99.90;;;11.42;100.00;101069.72;4186409;28;20067;-70
2024/02/16 05:13:52;;;;;;;3.28;1.23;;;11.90;99.90;;;11.42;100.00;101073.19;4187407;28;20017;-70
2024/02/16 05:15:54;;;;;;;1.13;0.52;;;11.90;99.90;;;11.44;100.00;101075.72;4187561;28;20033;-69
2024/02/16 05:17:55;;;;;;;3.58;0.80;;;11.90;99.90;;;11.40;100.00;101082.25;4184000;28;20434;-69
2024/02/16 05:19:56;;;;;;;2.35;1.02;;;11.90;99.90;;;11.40;100.00;101090.19;4186005;28;20029;-69
2024/02/16 05:21:57;;;;;;;3.28;0.70;;;11.90;99.90;;;11.43;100.00;101103.09;4187200;28;20223;-69
2024/02/16 05:23:58;;;;;;;1.05;0.40;;;11.90;99.90;;;11.43;100.00;101100.44;4187266;28;20029;-69
2024/02/16 05:25:58;;;;;;;3.08;0.70;;;11.90;99.90;;;11.39;100.00;101105.19;4187184;28;20021;-69
2024/02/16 05:28:01;;;;;;;2.50;0.88;;;11.90;99.90;;;11.38;100.00;101108.81;4174080;28;20025;-69
2024/02/16 05:30:02;;;;;;;3.22;0.70;;;11.90;99.90;;;11.36;100.00;101112.59;4185987;28;20028;-69
2024/02/16 05:32:03;;;;;;;3.28;0.75;;;11.90;99.90;;;11.34;100.00;101112.75;4186450;28;20079;-69
2024/02/16 05:34:04;;;;;;;5.57;1.27;;;11.90;99.90;;;11.35;100.00;101122.31;4186993;28;20025;-69
2024/02/16 05:36:06;;;;;;;3.40;0.70;;;11.90;99.90;;;11.35;100.00;101124.16;4186855;28;20025;-69
2024/02/16 05:38:20;;;;;;;3.47;0.98;;;11.90;99.90;;;11.33;100.00;101134.03;4185737;28;20096;-69
2024/02/16 05:40:27;;;;;;;4.10;1.00;;;11.80;99.90;;;11.34;100.00;101135.69;4186593;28;20025;-69
2024/02/16 05:42:28;;;;;;;2.72;0.70;;;11.90;99.90;;;11.36;100.00;101141.66;4185495;28;20083;-70
2024/02/16 05:44:29;;;;;;;4.18;1.42;;;11.80;99.90;;;11.35;100.00;101142.66;4169022;28;20033;-70
2024/02/16 05:46:30;;;;;;;5.35;0.93;;;11.90;99.90;;;11.30;100.00;101145.72;4186642;28;20021;-70
2024/02/16 05:48:31;;;;;;;4.63;1.17;;;11.90;99.90;;;11.26;100.00;101140.91;4186556;28;20554;-69
2024/02/16 05:50:32;;;;;;;5.03;0.70;;;11.80;99.90;;;11.30;100.00;101153.66;4186667;28;20075;-69
2024/02/16 05:52:33;;;;;;;2.20;0.70;;;11.80;99.90;;;11.22;100.00;101148.31;4186587;28;20098;-69
2024/02/16 05:54:33;;;;;;;3.58;0.90;;;11.80;99.90;;;11.24;100.00;101151.63;4186717;28;20083;-69
2024/02/16 05:56:36;;;;;;;2.22;0.70;;;11.70;99.90;;;11.09;100.00;101156.59;4186673;28;20021;-69
2024/02/16 05:58:37;;;;;;;2.60;0.82;;;11.70;99.90;;;10.99;100.00;101162.91;4186513;28;20025;-69
2024/02/16 06:00:38;;;;;;;5.45;1.10;;;11.60;99.90;;;10.99;100.00;101171.63;4186652;28;20040;-69
2024/02/16 06:02:39;;;;;;;5.32;1.15;;;11.60;99.90;;;11.00;100.00;101170.66;4186596;28;20075;-69
2024/02/16 06:04:40;;;;;;;8.20;1.27;;;11.50;99.90;;;10.91;100.00;101170.72;4186570;28;20024;-69
2024/02/16 06:06:41;;;;;;;3.28;1.33;;;11.50;99.90;;;10.81;100.00;101167.31;4184844;28;20017;-69
2024/02/16 06:08:41;;;;;;;5.05;1.13;;;11.40;99.90;;;10.74;100.00;101185.53;4186552;28;20072;-69
2024/02/16 06:10:42;;;;;;;8.77;1.63;;;11.40;99.90;;;10.69;100.00;101181.69;4185390;28;20029;-69
2024/02/16 06:12:43;;;;;;;5.60;1.05;;;11.20;99.90;;;10.55;100.00;101186.44;4186559;28;20029;-69
2024/02/16 06:14:44;;;;;;;7.53;1.58;;;11.10;99.90;;;10.44;100.00;101191.06;4185116;28;20029;-69
2024/02/16 06:16:46;;;;;;;5.28;1.25;;;11.00;99.90;;;10.36;100.00;101202.31;4186352;28;20033;-69
2024/02/16 06:18:48;;;;;;;5.85;1.50;;;10.90;99.90;;;10.32;100.00;101197.50;4185313;28;20471;-69
2024/02/16 06:20:49;;;;;;;9.02;1.65;;;10.90;99.90;;;10.23;100.00;101203.63;4186429;28;20040;-69
2024/02/16 06:22:50;;;;;;;10.88;1.55;;;10.80;99.90;;;10.17;100.00;101212.09;4185799;28;20477;-69
2024/02/16 06:24:50;;;;;;;7.45;1.13;;;10.80;99.90;;;10.13;100.00;101206.28;4186311;28;20424;-69
2024/02/16 06:26:51;;;;;;;10.82;1.88;;;10.70;99.90;;;10.08;100.00;101212.91;4186449;28;20373;-69
2024/02/16 06:28:52;;;;;;;8.18;1.40;;;10.60;99.90;;;10.00;100.00;101222.34;4184997;28;20029;-69
2024/02/16 06:30:53;;;;;;;8.20;1.63;;;10.50;99.90;;;9.91;100.00;101223.22;4185934;28;20086;-69
2024/02/16 06:32:54;;;;;;;10.73;2.13;;;10.50;99.90;;;9.87;100.00;101242.91;4186113;28;20033;-69
2024/02/16 06:34:55;;;;;;;9.50;1.60;;;10.40;99.90;;;9.83;100.00;101245.94;4185035;28;20075;-69
2024/02/16 06:36:57;;;;;;;9.68;1.25;;;10.40;99.90;;;9.75;100.00;101244.00;4185768;28;20100;-69
2024/02/16 06:38:58;;;;;;;8.40;2.38;;;10.30;99.90;;;9.71;100.00;101247.03;4185908;28;20021;-69
2024/02/16 06:40:59;;;;;;;7.68;2.42;;;10.30;99.90;;;9.64;100.00;101240.69;4168271;28;20060;-69
2024/02/16 06:42:59;;;;;;;7.65;2.25;;;10.20;99.90;;;9.63;100.00;101255.66;4200617;28;20059;-69
2024/02/16 06:45:00;;;;;;;9.57;2.42;;;10.20;99.90;;;9.56;100.00;101249.25;4185772;28;20021;-69
2024/02/16 06:47:01;;;;;;;9.32;2.17;;;10.20;99.90;;;9.53;100.00;101261.91;4184650;28;20096;-69
2024/02/16 06:49:02;;;;;;;9.75;2.17;;;10.10;99.90;;;9.49;100.00;101274.50;4184695;28;20072;-69
2024/02/16 06:51:03;;;;;;;9.68;1.52;;;10.10;99.90;;;9.44;100.00;101274.03;4185896;28;20059;-69
2024/02/16 06:53:04;;;;;;;9.35;1.30;;;10.00;99.90;;;9.44;100.00;101284.56;4184416;28;20032;-69
2024/02/16 06:55:05;;;;;;;7.63;1.70;;;10.00;99.90;;;9.42;100.00;101289.16;4185726;28;20377;-69
2024/02/16 06:57:06;;;;;;;10.55;1.65;;;9.90;99.90;;;9.38;100.00;101287.75;4185632;28;20039;-69
2024/02/16 06:59:08;;;;;;;6.00;1.50;;;9.90;99.90;;;9.32;100.00;101297.03;4185781;28;20099;-69
2024/02/16 07:01:09;;;;;;;13.13;2.05;;;9.90;99.90;;;9.31;100.00;101305.06;4185733;28;20030;-69
2024/02/16 07:03:10;;;;;;;7.40;1.40;;;9.90;99.90;;;9.30;100.00;101308.66;4185536;28;20044;-69
2024/02/16 07:05:12;;;;;;;12.50;2.40;;;9.90;99.90;;;9.29;100.00;101304.34;4184189;28;20100;-70
2024/02/16 07:07:13;;;;;;;13.13;2.92;;;9.90;99.90;;;9.28;100.00;101313.25;4167440;28;20037;-70
2024/02/16 07:09:15;;;;;;;10.50;1.70;;;9.80;99.90;;;9.29;100.00;101317.50;4185454;28;20035;-70
2024/02/16 07:11:15;;;;;;;8.25;2.00;;;9.80;99.90;;;9.28;100.00;101329.03;4185652;28;20021;-69
2024/02/16 07:13:17;;;;;;;14.38;1.70;;;9.80;99.90;;;9.20;100.00;101326.25;4185416;28;20040;-70
2024/02/16 07:15:18;;;;;;;8.68;1.80;;;9.80;99.90;;;9.08;100.00;101328.09;4184337;28;20029;-70
2024/02/16 07:17:19;;;;;;;15.00;3.10;;;9.80;99.90;;;9.12;100.00;101333.94;4185492;28;20028;-70
2024/02/16 07:19:20;;;;;;;15.88;2.72;;;9.70;99.90;;;9.16;100.00;101336.19;4184277;28;20029;-69
2024/02/16 07:21:22;;;;;;;8.48;1.95;;;9.70;99.90;;;9.16;100.00;101336.19;4185180;28;20029;-69
2024/02/16 07:23:23;;;;;;;17.70;1.98;;;9.70;99.90;;;9.13;100.00;101346.16;4184041;28;20106;-70
2024/02/16 07:25:24;;;;;;;13.02;1.70;;;9.70;99.90;;;9.02;100.00;101348.88;4185521;28;20021;-69
2024/02/16 07:27:26;;;;;;;9.90;2.38;;;9.70;99.90;;;8.98;100.00;101368.50;4185519;28;20480;-69
2024/02/16 07:29:27;;;;;;;9.52;2.13;;;9.60;99.90;;;8.94;100.00;101378.47;4184235;28;20017;-69
2024/02/16 07:31:35;;;;;;;8.68;2.35;;;9.50;99.90;;;8.93;100.00;101379.41;4184133;28;20477;-69
2024/02/16 07:33:36;;;;;;;11.55;3.00;;;9.50;99.90;;;8.92;100.00;101384.81;4184216;28;20032;-69
2024/02/16 07:35:38;;;;;;;9.23;1.75;;;9.50;99.90;;;8.89;100.00;101386.75;4184141;28;20032;-69
2024/02/16 07:37:38;;;;;;;12.32;2.55;;;9.50;99.90;;;8.94;100.00;101393.41;4184592;28;20566;-69
2024/02/16 07:39:41;;;;;;;10.25;2.83;;;9.50;99.90;;;8.94;100.00;101398.66;4185276;28;20029;-69
2024/02/16 07:41:42;;;;;;;14.70;1.80;;;9.50;99.90;;;8.90;100.00;101406.81;4167536;28;20021;-69
2024/02/16 07:43:42;;;;;;;8.60;2.65;;;9.50;99.90;;;8.89;100.00;101415.69;4185243;28;20036;-69
2024/02/16 07:45:44;;;;;;;10.52;1.95;;;9.50;99.90;;;8.87;100.00;101416.75;4185050;28;20028;-69
2024/02/16 07:47:46;;;;;;;10.38;2.10;;;9.40;99.90;;;8.86;100.00;101421.22;4183884;28;20447;-69
2024/02/16 07:49:47;;;;;;;15.35;1.90;;;9.40;99.90;;;8.85;100.00;101416.06;4183726;28;20098;-69
2024/02/16 07:51:48;;;;;;;7.72;1.85;;;9.50;99.90;;;8.89;100.00;101431.47;4184867;28;20025;-69
2024/02/16 07:53:49;;;;;;;14.32;3.35;;;9.50;99.90;;;8.93;100.00;101434.66;4183821;28;20044;-69
2024/02/16 07:55:50;;;;;;;11.55;1.90;;;9.50;99.90;;;8.93;100.00;101441.75;4186570;28;20040;-69
2024/02/16 07:57:52;;;;;;;10.82;2.42;;;9.50;99.90;;;8.89;100.00;101442.00;4188517;28;20028;-69
2024/02/16 07:59:53;;;;;;;8.43;2.88;;;9.50;99.90;;;8.92;100.00;101450.59;4187334;28;20115;-69
2024/02/16 08:01:53;;;;;;;20.20;2.70;;;9.50;99.90;;;8.94;100.00;101454.75;4187359;28;20056;-69
2024/02/16 08:03:54;;;;;;;13.63;1.85;;;9.50;99.90;;;8.95;100.00;101466.97;4187299;28;20036;-69
2024/02/16 08:05:56;;;;;;;12.45;2.38;;;9.50;99.90;;;8.94;100.00;101467.91;4188440;28;20029;-69
2024/02/16 08:07:57;;;;;;;7.65;2.42;;;9.50;99.90;;;8.94;100.00;101472.34;4188127;28;20059;-69
2024/02/16 08:09:57;;;;;;;12.45;3.42;;;9.50;99.90;;;8.94;100.00;101474.97;4187403;28;20017;-69
2024/02/16 08:11:59;;;;;;;7.22;1.60;;;9.50;99.90;;;8.95;100.00;101479.28;4188384;28;20473;-69
2024/02/16 08:14:00;;;;;;;10.45;2.40;;;9.50;99.90;;;8.97;100.00;101478.19;4187218;28;20037;-69
2024/02/16 08:16:06;;;;;;;14.13;2.00;;;9.50;99.90;;;9.01;100.00;101490.13;4187009;28;20025;-69
2024/02/16 08:18:07;;;;;;;11.30;1.48;;;9.50;99.90;;;9.05;100.00;101502.06;4170334;28;20591;-69